Station Historical Data
Daily Summary for August 08, 2012 Units:  Metric    English   Both
« Previous Day
Next Day »
Daily Weekly Monthly Yearly Custom
  High: Low: Average:
Temperature: 33.8 °C 21.8 °C 27.4 °C
Dew Point: 25.4 °C 20.1 °C 22.3 °C
Humidity: 92% 45% 76%
Wind Speed: 9.7km/h 0km/h 2.4km/h
Wind Gust: 9.7km/h - -
Wind- - SSE
Pressure: 1014.8 hPa 1010.7 hPa -
Precipitation: 0.25 mm    
Historical Graphs
 
 
Tabular Data for August 08, 2012
Time Temperature Dew Point Pressure Wind Wind Speed Wind Gust Humidity Rainfall Rate (Hourly) Conditions
00:00 23.9 °C 22.6 °C 1013.1 hPa Calm     92% 0 mm
00:02 24 °C 22.6 °C 1013.1 hPa Calm     92% 0 mm
00:07 24.2 °C 22.8 °C 1013.1 hPa Calm     92% 0 mm
00:12 24.2 °C 22.8 °C 1013.1 hPa NNE 1.6 km/h 3.2 km/h 92% 0 mm
00:17 24.2 °C 22.8 °C 1013.1 hPa NNE 3.2 km/h 3.2 km/h 92% 0 mm
00:22 24.3 °C 22.9 °C 1013.1 hPa NE 1.6 km/h 3.2 km/h 92% 0 mm
00:27 24.5 °C 23.1 °C 1013.1 hPa NE 1.6 km/h 3.2 km/h 92% 0 mm
00:32 24.6 °C 23 °C 1013.1 hPa NE 1.6 km/h 3.2 km/h 91% 0 mm
00:37 24.5 °C 22.9 °C 1013.1 hPa NE 3.2 km/h 3.2 km/h 91% 0 mm
00:42 24.5 °C 22.9 °C 1013.1 hPa NE 1.6 km/h 4.8 km/h 91% 0 mm
00:47 24.4 °C 22.8 °C 1013.1 hPa NE 3.2 km/h 3.2 km/h 91% 0 mm
00:52 24.3 °C 22.8 °C 1013.1 hPa NNE 1.6 km/h 3.2 km/h 91% 0 mm
00:57 24.3 °C 22.7 °C 1013.4 hPa Calm   1.6 km/h 91% 0 mm
01:02 24.2 °C 22.6 °C 1013.4 hPa SE 1.6 km/h 3.2 km/h 91% 0 mm
01:07 24 °C 22.4 °C 1013.4 hPa Calm   1.6 km/h 91% 0 mm
01:12 23.9 °C 22.5 °C 1013.4 hPa ESE 3.2 km/h 4.8 km/h 92% 0 mm
01:17 23.9 °C 22.5 °C 1013.4 hPa SE 1.6 km/h 1.6 km/h 92% 0 mm
01:22 23.8 °C 22.4 °C 1013.4 hPa SE 3.2 km/h 3.2 km/h 92% 0 mm
01:27 23.7 °C 22.3 °C 1013.8 hPa SE 1.6 km/h 3.2 km/h 92% 0 mm
01:32 23.7 °C 22.3 °C 1013.4 hPa ESE 3.2 km/h 3.2 km/h 92% 0 mm
01:37 23.7 °C 22.3 °C 1013.4 hPa Calm   3.2 km/h 92% 0 mm
01:42 23.7 °C 22.3 °C 1013.4 hPa Calm   3.2 km/h 92% 0 mm
01:47 23.9 °C 22.5 °C 1013.1 hPa Calm   3.2 km/h 92% 0 mm
01:52 24 °C 22.4 °C 1013.1 hPa Calm   1.6 km/h 91% 0 mm
01:58 23.8 °C 22.2 °C 1013.1 hPa East 1.6 km/h 1.6 km/h 91% 0 mm
02:02 23.7 °C 22.3 °C 1013.1 hPa Calm   1.6 km/h 92% 0 mm
02:08 23.8 °C 22.3 °C 1013.1 hPa ENE 1.6 km/h 1.6 km/h 91% 0 mm
02:13 23.7 °C 22.3 °C 1013.1 hPa Calm   1.6 km/h 92% 0 mm
02:18 23.7 °C 22.3 °C 1013.1 hPa Calm     92% 0 mm
02:23 23.6 °C 22.2 °C 1013.1 hPa Calm     92% 0 mm
02:28 23.5 °C 22.1 °C 1012.8 hPa Calm     92% 0 mm
02:33 23.6 °C 22.2 °C 1012.8 hPa ENE 1.6 km/h 1.6 km/h 92% 0 mm
02:38 23.6 °C 22.2 °C 1012.8 hPa SE 1.6 km/h 1.6 km/h 92% 0 mm
02:43 23.6 °C 22.2 °C 1012.8 hPa Calm   1.6 km/h 92% 0 mm
02:48 23.4 °C 21.9 °C 1012.8 hPa Calm   1.6 km/h 91% 0 mm
02:53 23.3 °C 21.9 °C 1012.8 hPa Calm     92% 0 mm
02:58 23.1 °C 21.7 °C 1012.8 hPa Calm     92% 0 mm
03:03 22.9 °C 21.6 °C 1012.8 hPa Calm     92% 0 mm
03:08 22.8 °C 21.4 °C 1012.8 hPa Calm     92% 0 mm
03:13 22.7 °C 21.3 °C 1012.4 hPa Calm     92% 0 mm
03:18 22.7 °C 21.3 °C 1012.4 hPa Calm     92% 0 mm
03:23 22.7 °C 21.3 °C 1012.8 hPa Calm   1.6 km/h 92% 0 mm
03:28 22.7 °C 21.3 °C 1012.4 hPa NNE 1.6 km/h 1.6 km/h 92% 0 mm
03:33 22.6 °C 21.2 °C 1012.8 hPa NNW 3.2 km/h 3.2 km/h 92% 0 mm
03:38 22.5 °C 21.2 °C 1012.8 hPa North 1.6 km/h 3.2 km/h 92% 0 mm
03:43 22.4 °C 21.1 °C 1012.8 hPa NNW 1.6 km/h 1.6 km/h 92% 0 mm
03:48 22.5 °C 21.2 °C 1012.8 hPa North 3.2 km/h 3.2 km/h 92% 0 mm
03:53 22.4 °C 21.1 °C 1012.8 hPa North 1.6 km/h 3.2 km/h 92% 0 mm
03:58 22.4 °C 21 °C 1012.8 hPa North 1.6 km/h 1.6 km/h 92% 0 mm
04:03 22.6 °C 21.2 °C 1012.8 hPa NNE 1.6 km/h 3.2 km/h 92% 0 mm
04:08 22.5 °C 21.2 °C 1012.4 hPa Calm     92% 0 mm
04:13 22.5 °C 21.2 °C 1012.8 hPa Calm     92% 0 mm
04:18 22.4 °C 21.1 °C 1012.8 hPa NNE 1.6 km/h 1.6 km/h 92% 0 mm
04:23 22.4 °C 21 °C 1012.8 hPa Calm     92% 0 mm
04:28 22.3 °C 20.9 °C 1012.8 hPa East 1.6 km/h 1.6 km/h 92% 0 mm
04:33 22.3 °C 20.9 °C 1012.8 hPa East 1.6 km/h 1.6 km/h 92% 0 mm
04:38 22.3 °C 21 °C 1012.8 hPa Calm     92% 0 mm
04:43 22.2 °C 20.8 °C 1012.8 hPa ESE 6.4 km/h 6.4 km/h 92% 0 mm
04:48 22.1 °C 20.7 °C 1012.8 hPa ESE 3.2 km/h 4.8 km/h 92% 0 mm
04:53 22.1 °C 20.7 °C 1012.8 hPa East 3.2 km/h 4.8 km/h 92% 0 mm
04:58 22.2 °C 20.9 °C 1012.8 hPa ESE 3.2 km/h 3.2 km/h 92% 0 mm
05:03 22.2 °C 20.8 °C 1012.8 hPa East 1.6 km/h 3.2 km/h 92% 0 mm
05:09 22.2 °C 20.8 °C 1012.8 hPa ESE 1.6 km/h 3.2 km/h 92% 0 mm
05:14 22.1 °C 20.7 °C 1012.8 hPa Calm   1.6 km/h 92% 0 mm
05:19 22.2 °C 20.9 °C 1012.8 hPa Calm   1.6 km/h 92% 0 mm
05:24 22.3 °C 20.9 °C 1013.1 hPa Calm   1.6 km/h 92% 0 mm
05:29 22.2 °C 20.9 °C 1013.1 hPa Calm     92% 0 mm
05:34 22.1 °C 20.7 °C 1013.1 hPa Calm     92% 0 mm
05:39 22 °C 20.7 °C 1013.1 hPa NNE 1.6 km/h 3.2 km/h 92% 0 mm
05:44 22 °C 20.7 °C 1013.1 hPa Calm   1.6 km/h 92% 0 mm
05:49 22.1 °C 20.7 °C 1013.1 hPa Calm     92% 0 mm
05:54 21.9 °C 20.6 °C 1013.1 hPa Calm     92% 0 mm
05:59 22.1 °C 20.7 °C 1013.1 hPa Calm     92% 0 mm
06:04 22.2 °C 20.8 °C 1013.1 hPa ESE 3.2 km/h 3.2 km/h 92% 0 mm
06:09 22.3 °C 20.9 °C 1013.1 hPa East 1.6 km/h 3.2 km/h 92% 0 mm
06:14 22.3 °C 21 °C 1013.4 hPa ESE 1.6 km/h 3.2 km/h 92% 0 mm
06:19 22.3 °C 20.9 °C 1013.4 hPa ESE 4.8 km/h 4.8 km/h 92% 0 mm
06:24 22.3 °C 21 °C 1013.4 hPa ESE 3.2 km/h 8 km/h 92% 0 mm
06:29 22.3 °C 21 °C 1013.4 hPa Calm   3.2 km/h 92% 0 mm
06:34 22.3 °C 20.9 °C 1013.4 hPa Calm     92% 0 mm
06:39 22.2 °C 20.9 °C 1013.4 hPa Calm     92% 0 mm
06:44 22.1 °C 20.7 °C 1013.4 hPa Calm     92% 0 mm
06:49 22 °C 20.7 °C 1013.4 hPa Calm     92% 0 mm
06:54 21.9 °C 20.6 °C 1013.4 hPa Calm     92% 0 mm
06:59 21.8 °C 20.5 °C 1013.4 hPa Calm     92% 0 mm
07:04 21.9 °C 20.6 °C 1013.4 hPa Calm     92% 0 mm
07:09 22.1 °C 20.7 °C 1013.4 hPa ESE 1.6 km/h 3.2 km/h 92% 0 mm
07:14 22.2 °C 20.8 °C 1013.4 hPa Calm   1.6 km/h 92% 0 mm
07:19 22.2 °C 20.8 °C 1013.4 hPa Calm     92% 0 mm
07:24 22.2 °C 20.8 °C 1013.4 hPa Calm     92% 0 mm
07:29 22.1 °C 20.7 °C 1013.4 hPa Calm     92% 0 mm
07:34 22.2 °C 20.9 °C 1013.4 hPa ESE 1.6 km/h 3.2 km/h 92% 0 mm
07:39 22.3 °C 21 °C 1013.4 hPa SE 4.8 km/h 4.8 km/h 92% 0 mm
07:44 22.6 °C 21.1 °C 1013.4 hPa SSE 4.8 km/h 6.4 km/h 91% 0 mm
07:49 22.7 °C 21.2 °C 1013.4 hPa South 3.2 km/h 4.8 km/h 91% 0 mm
07:54 22.8 °C 21.2 °C 1013.8 hPa SSE 3.2 km/h 6.4 km/h 91% 0 mm
07:59 23 °C 21.4 °C 1013.8 hPa SSE 1.6 km/h 4.8 km/h 91% 0 mm
08:04 23.2 °C 21.6 °C 1013.8 hPa SW 1.6 km/h 3.2 km/h 91% 0 mm
08:09 23.2 °C 21.6 °C 1013.8 hPa SSW 3.2 km/h 4.8 km/h 91% 0 mm
08:14 23.3 °C 21.7 °C 1013.8 hPa Calm   1.6 km/h 91% 0 mm
08:19 23.4 °C 21.9 °C 1013.8 hPa Calm   1.6 km/h 91% 0 mm
08:24 23.5 °C 21.9 °C 1013.8 hPa West 1.6 km/h 1.6 km/h 91% 0 mm
08:29 23.6 °C 22.1 °C 1014.1 hPa SE 1.6 km/h 1.6 km/h 91% 0 mm
08:34 23.7 °C 22.2 °C 1014.1 hPa Calm   1.6 km/h 91% 0 mm
08:39 23.8 °C 22.2 °C 1014.1 hPa West 1.6 km/h 3.2 km/h 91% 0 mm
08:44 23.8 °C 22.2 °C 1014.1 hPa Calm   1.6 km/h 91% 0 mm
08:50 23.9 °C 22.3 °C 1014.1 hPa SSW 1.6 km/h 1.6 km/h 91% 0 mm
08:55 24.1 °C 22.5 °C 1014.1 hPa SSW 1.6 km/h 1.6 km/h 91% 0 mm
09:00 24.6 °C 23 °C 1014.1 hPa Calm     91% 0 mm
09:05 24.7 °C 23.1 °C 1014.1 hPa Calm     91% 0 mm
09:10 24.6 °C 23 °C 1014.1 hPa Calm     91% 0 mm
09:15 24.8 °C 23.2 °C 1014.1 hPa West 3.2 km/h 3.2 km/h 91% 0 mm
09:20 24.8 °C 23.4 °C 1014.1 hPa SW 1.6 km/h 3.2 km/h 92% 0 mm
09:25 24.8 °C 23.4 °C 1014.1 hPa WSW 3.2 km/h 4.8 km/h 92% 0 mm
09:30 25 °C 23.6 °C 1014.4 hPa WSW 3.2 km/h 4.8 km/h 92% 0 mm
09:35 25.4 °C 24 °C 1014.4 hPa Calm   4.8 km/h 92% 0 mm
09:40 25.8 °C 24.3 °C 1014.4 hPa South 3.2 km/h 4.8 km/h 91% 0 mm
09:45 26.2 °C 24.4 °C 1014.4 hPa West 3.2 km/h 3.2 km/h 90% 0 mm
09:50 26.4 °C 24.2 °C 1014.4 hPa SW 3.2 km/h 4.8 km/h 88% 0 mm
09:55 26.7 °C 24.6 °C 1014.4 hPa SW 4.8 km/h 4.8 km/h 88% 0 mm
10:00 27 °C 24.7 °C 1014.4 hPa WSW 3.2 km/h 4.8 km/h 87% 0 mm
10:05 27.3 °C 24.9 °C 1014.4 hPa Calm   4.8 km/h 87% 0 mm
10:10 27.7 °C 25.3 °C 1014.4 hPa WNW 3.2 km/h 4.8 km/h 87% 0 mm
10:15 27.7 °C 24.9 °C 1014.4 hPa WSW 8 km/h 8 km/h 85% 0 mm
10:20 27.7 °C 25.2 °C 1014.4 hPa West 4.8 km/h 9.7 km/h 86% 0 mm
10:25 27.9 °C 25 °C 1014.4 hPa WNW 4.8 km/h 8 km/h 84% 0 mm
10:30 28.2 °C 25.3 °C 1014.4 hPa WNW 3.2 km/h 4.8 km/h 84% 0 mm
10:35 28.3 °C 25.4 °C 1014.4 hPa WNW 4.8 km/h 6.4 km/h 84% 0 mm
10:40 28.5 °C 24.7 °C 1014.8 hPa West 3.2 km/h 6.4 km/h 80% 0 mm
10:45 28.6 °C 25.1 °C 1014.8 hPa WNW 8 km/h 8 km/h 81% 0 mm
10:50 28.7 °C 25.1 °C 1014.8 hPa West 3.2 km/h 4.8 km/h 81% 0 mm
10:55 28.8 °C 25 °C 1014.8 hPa Calm   6.4 km/h 80% 0 mm
11:00 29.1 °C 25.1 °C 1014.8 hPa WNW 4.8 km/h 6.4 km/h 79% 0 mm
11:05 29.1 °C 25.1 °C 1014.8 hPa WNW 4.8 km/h 8 km/h 79% 0 mm
11:10 29.2 °C 24.5 °C 1014.8 hPa WNW 3.2 km/h 6.4 km/h 76% 0 mm
11:15 29.3 °C 24.8 °C 1014.8 hPa Calm   3.2 km/h 77% 0 mm
11:20 29.4 °C 25 °C 1014.8 hPa NW 8 km/h 8 km/h 77% 0 mm
11:25 29.5 °C 24.6 °C 1014.8 hPa West 3.2 km/h 4.8 km/h 75% 0 mm
11:30 29.8 °C 25.3 °C 1014.8 hPa Calm   1.6 km/h 77% 0 mm
11:35 30 °C 25.1 °C 1014.8 hPa NNE 1.6 km/h 6.4 km/h 75% 0 mm
11:40 30.1 °C 24.4 °C 1014.8 hPa WNW 6.4 km/h 6.4 km/h 72% 0 mm
11:45 30.2 °C 25.1 °C 1014.4 hPa West 1.6 km/h 4.8 km/h 74% 0 mm
11:50 30.3 °C 23.7 °C 1014.8 hPa WSW 3.2 km/h 4.8 km/h 68% 0 mm
11:55 30.7 °C 24.4 °C 1014.4 hPa ENE 4.8 km/h 4.8 km/h 69% 0 mm
12:00 30.9 °C 24.6 °C 1014.4 hPa Calm   3.2 km/h 69% 0 mm
12:05 31.4 °C 24.6 °C 1014.4 hPa North 3.2 km/h 9.7 km/h 67% 0 mm
12:10 31.5 °C 24.4 °C 1014.4 hPa SE 1.6 km/h 3.2 km/h 66% 0 mm
12:15 31.8 °C 24.4 °C 1014.4 hPa WNW 3.2 km/h 4.8 km/h 65% 0 mm
12:20 31.3 °C 22.9 °C 1014.4 hPa West 1.6 km/h 6.4 km/h 61% 0 mm
12:25 31.2 °C 23.3 °C 1014.4 hPa West 1.6 km/h 4.8 km/h 63% 0 mm
12:30 31.4 °C 22.1 °C 1014.4 hPa NNW 1.6 km/h 8 km/h 58% 0 mm
12:35 31.2 °C 22.6 °C 1014.4 hPa NNE 4.8 km/h 4.8 km/h 60% 0 mm
12:40 31.2 °C 22 °C 1014.4 hPa NW 1.6 km/h 6.4 km/h 58% 0 mm
12:45 31.3 °C 22.9 °C 1014.4 hPa NNE 3.2 km/h 8 km/h 61% 0 mm
12:50 31.7 °C 21.6 °C 1014.4 hPa Calm   6.4 km/h 55% 0 mm
12:55 32.2 °C 21.4 °C 1014.1 hPa SSE 1.6 km/h 3.2 km/h 53% 0 mm
13:00 32.6 °C 23 °C 1014.1 hPa WNW 3.2 km/h 6.4 km/h 57% 0 mm
13:05 32.2 °C 22 °C 1014.1 hPa WNW 3.2 km/h 6.4 km/h 55% 0 mm
13:10 31.6 °C 22.3 °C 1014.1 hPa NW 3.2 km/h 3.2 km/h 58% 0 mm
13:15 31.4 °C 21.6 °C 1014.1 hPa Calm   1.6 km/h 56% 0 mm
13:20 31.7 °C 21.9 °C 1014.1 hPa SSW 6.4 km/h 9.7 km/h 56% 0 mm
13:25 31.8 °C 21.9 °C 1013.8 hPa NNW 4.8 km/h 9.7 km/h 56% 0 mm
13:30 31.7 °C 22.7 °C 1013.8 hPa West 3.2 km/h 9.7 km/h 59% 0 mm
13:35 31.9 °C 22.1 °C 1013.8 hPa Calm   4.8 km/h 56% 0 mm
13:40 32.3 °C 22.4 °C 1013.8 hPa NW 1.6 km/h 3.2 km/h 56% 0 mm
13:45 32.2 °C 22 °C 1013.8 hPa West 4.8 km/h 8 km/h 55% 0 mm
13:50 32.2 °C 21.7 °C 1013.8 hPa East 3.2 km/h 3.2 km/h 54% 0 mm
13:55 32.4 °C 23.1 °C 1013.8 hPa WNW 3.2 km/h 6.4 km/h 58% 0 mm
14:00 32.2 °C 22 °C 1013.8 hPa North 4.8 km/h 4.8 km/h 55% 0 mm
14:05 32.1 °C 23.6 °C 1013.4 hPa NW 3.2 km/h 4.8 km/h 61% 0 mm
14:10 31.8 °C 21.9 °C 1013.8 hPa West 1.6 km/h 3.2 km/h 56% 0 mm
14:15 32.2 °C 22.9 °C 1013.8 hPa Calm   1.6 km/h 58% 0 mm
14:21 32.4 °C 22.6 °C 1013.4 hPa NNW 3.2 km/h 6.4 km/h 56% 0 mm
14:26 32.4 °C 21.6 °C 1013.4 hPa NNW 6.4 km/h 8 km/h 53% 0 mm
14:31 32.4 °C 21.6 °C 1013.4 hPa NNE 6.4 km/h 8 km/h 53% 0 mm
14:36 32.2 °C 22.1 °C 1013.4 hPa NW 6.4 km/h 6.4 km/h 55% 0 mm
14:41 32.3 °C 21.5 °C 1013.4 hPa SW 1.6 km/h 3.2 km/h 53% 0 mm
14:46 32.3 °C 21.8 °C 1013.4 hPa WSW 3.2 km/h 6.4 km/h 54% 0 mm
14:51 32.5 °C 21.1 °C 1013.1 hPa SE 4.8 km/h 6.4 km/h 51% 0 mm
14:56 32.3 °C 20.6 °C 1013.1 hPa SW 1.6 km/h 6.4 km/h 50% 0 mm
15:01 32.3 °C 21.5 °C 1013.1 hPa SE 4.8 km/h 4.8 km/h 53% 0 mm
15:06 32.4 °C 20.7 °C 1013.1 hPa East 3.2 km/h 3.2 km/h 50% 0 mm
15:11 32.7 °C 21.8 °C 1013.1 hPa East 3.2 km/h 3.2 km/h 53% 0 mm
15:16 32.7 °C 21.3 °C 1012.8 hPa NW 3.2 km/h 6.4 km/h 51% 0 mm
15:21 32.8 °C 21 °C 1012.8 hPa NW 4.8 km/h 8 km/h 50% 0 mm
15:26 32.7 °C 20.2 °C 1012.8 hPa North 3.2 km/h 4.8 km/h 48% 0 mm
15:31 32.7 °C 20.6 °C 1012.8 hPa NNW 3.2 km/h 8 km/h 49% 0 mm
15:37 32.7 °C 20.6 °C 1012.8 hPa Calm   3.2 km/h 49% 0 mm
15:42 32.9 °C 20.1 °C 1012.4 hPa Calm   8 km/h 47% 0 mm
15:47 33.2 °C 21 °C 1012.4 hPa NNE 3.2 km/h 9.7 km/h 49% 0 mm
15:52 33.2 °C 21.4 °C 1012.4 hPa WSW 1.6 km/h 8 km/h 50% 0 mm
15:57 32.9 °C 21.2 °C 1012.4 hPa NW 3.2 km/h 9.7 km/h 50% 0 mm
16:02 32.9 °C 21.8 °C 1012.4 hPa NW 4.8 km/h 4.8 km/h 52% 0 mm
16:07 32.9 °C 21.1 °C 1012.1 hPa NNE 4.8 km/h 8 km/h 50% 0 mm
16:12 32.8 °C 21.3 °C 1012.1 hPa NE 4.8 km/h 8 km/h 51% 0 mm
16:17 32.7 °C 22.2 °C 1012.1 hPa Calm   4.8 km/h 54% 0 mm
16:22 32.8 °C 21 °C 1012.1 hPa NW 3.2 km/h 4.8 km/h 50% 0 mm
16:27 32.8 °C 21.1 °C 1011.7 hPa WNW 6.4 km/h 6.4 km/h 50% 0 mm
16:32 32.8 °C 21.7 °C 1011.7 hPa West 1.6 km/h 3.2 km/h 52% 0 mm
16:37 33.1 °C 21.9 °C 1011.7 hPa ENE 3.2 km/h 4.8 km/h 52% 0 mm
16:42 33.2 °C 22 °C 1011.7 hPa NNE 1.6 km/h 3.2 km/h 52% 0 mm
16:47 33.3 °C 21.1 °C 1011.7 hPa NE 1.6 km/h 6.4 km/h 49% 0 mm
16:52 33.2 °C 21.3 °C 1011.7 hPa ESE 4.8 km/h 6.4 km/h 50% 0 mm
16:57 32.9 °C 20.8 °C 1011.7 hPa SE 1.6 km/h 4.8 km/h 49% 0 mm
17:02 32.8 °C 20.7 °C 1011.7 hPa East 4.8 km/h 6.4 km/h 49% 0 mm
17:07 32.8 °C 21 °C 1011.7 hPa East 1.6 km/h 4.8 km/h 50% 0 mm
17:12 32.9 °C 20.8 °C 1011.7 hPa SE 3.2 km/h 3.2 km/h 49% 0 mm
17:17 33.1 °C 22.3 °C 1011.4 hPa ESE 3.2 km/h 4.8 km/h 53% 0 mm
17:22 33.2 °C 20.4 °C 1011.4 hPa East 1.6 km/h 3.2 km/h 47% 0 mm
17:27 33.7 °C 20.8 °C 1011.4 hPa Calm   3.2 km/h 47% 0 mm
17:32 33.8 °C 20.2 °C 1011.4 hPa ESE 4.8 km/h 4.8 km/h 45% 0 mm
17:37 33.4 °C 20.9 °C 1011.4 hPa East 3.2 km/h 6.4 km/h 48% 0 mm
17:42 33.1 °C 21.9 °C 1011.1 hPa ESE 8 km/h 9.7 km/h 52% 0 mm
17:47 33 °C 22.2 °C 1011.1 hPa ESE 4.8 km/h 6.4 km/h 53% 0 mm
17:52 32.7 °C 23.4 °C 1011.1 hPa SE 3.2 km/h 8 km/h 58% 0 mm
17:57 32.6 °C 21.5 °C 1011.1 hPa SE 3.2 km/h 8 km/h 52% 0 mm
18:02 32.6 °C 22.3 °C 1011.1 hPa ESE 9.7 km/h 9.7 km/h 55% 0 mm
18:07 32.4 °C 22.8 °C 1011.1 hPa ESE 4.8 km/h 8 km/h 57% 0 mm
18:12 32.5 °C 22.6 °C 1011.1 hPa ESE 6.4 km/h 6.4 km/h 56% 0 mm
18:17 32.4 °C 21.9 °C 1011.1 hPa East 6.4 km/h 6.4 km/h 54% 0 mm
18:22 32.5 °C 22.6 °C 1011.1 hPa SE 4.8 km/h 8 km/h 56% 0 mm
18:27 32.4 °C 22.6 °C 1010.7 hPa SE 3.2 km/h 4.8 km/h 56% 0 mm
18:32 32.4 °C 22.6 °C 1010.7 hPa SE 4.8 km/h 6.4 km/h 56% 0 mm
18:38 32.3 °C 22.7 °C 1010.7 hPa SE 6.4 km/h 6.4 km/h 57% 0 mm
18:43 32.2 °C 22.1 °C 1011.1 hPa SE 3.2 km/h 8 km/h 55% 0 mm
18:48 32.3 °C 21.8 °C 1011.1 hPa SE 4.8 km/h 4.8 km/h 54% 0 mm
18:53 32.3 °C 22.2 °C 1011.1 hPa SSE 3.2 km/h 3.2 km/h 55% 0 mm
18:58 32.3 °C 22.7 °C 1011.1 hPa SSE 1.6 km/h 3.2 km/h 57% 0 mm
19:03 32.1 °C 22.2 °C 1011.1 hPa SE 1.6 km/h 3.2 km/h 56% 0 mm
19:08 31.9 °C 22.3 °C 1011.1 hPa SE 3.2 km/h 4.8 km/h 57% 0 mm
19:13 31.8 °C 22.8 °C 1011.1 hPa SE 3.2 km/h 4.8 km/h 59% 0 mm
19:18 31.6 °C 22.9 °C 1011.1 hPa SE 3.2 km/h 6.4 km/h 60% 0 mm
19:23 31.3 °C 22.9 °C 1011.1 hPa SSE 3.2 km/h 3.2 km/h 61% 0 mm
19:28 31.2 °C 23.6 °C 1011.1 hPa SE 1.6 km/h 3.2 km/h 64% 0 mm
19:33 30.9 °C 22.3 °C 1011.1 hPa SE 3.2 km/h 3.2 km/h 60% 0 mm
19:38 30.8 °C 22.2 °C 1011.1 hPa SE 3.2 km/h 3.2 km/h 60% 0 mm
19:43 30.6 °C 22.4 °C 1011.1 hPa SE 1.6 km/h 3.2 km/h 62% 0 mm
19:48 30.2 °C 23.2 °C 1011.1 hPa SE 1.6 km/h 1.6 km/h 66% 0 mm
19:53 29.9 °C 23.1 °C 1011.1 hPa SSE 1.6 km/h 3.2 km/h 67% 0 mm
19:58 29.6 °C 23 °C 1011.1 hPa SE 3.2 km/h 3.2 km/h 68% 0 mm
20:03 29.3 °C 22.8 °C 1011.1 hPa Calm   1.6 km/h 68% 0 mm
20:08 29.3 °C 23 °C 1011.1 hPa SSE 1.6 km/h 3.2 km/h 69% 0 mm
20:13 29.2 °C 23.8 °C 1011.1 hPa SSE 1.6 km/h 1.6 km/h 73% 0 mm
20:18 28.9 °C 23.3 °C 1011.1 hPa SSE 3.2 km/h 3.2 km/h 72% 0 mm
20:23 28.7 °C 23.6 °C 1011.1 hPa SSE 1.6 km/h 3.2 km/h 74% 0 mm
20:28 28.6 °C 23.3 °C 1011.4 hPa SSE 3.2 km/h 3.2 km/h 73% 0 mm
20:33 28.5 °C 23.2 °C 1011.1 hPa SE 1.6 km/h 3.2 km/h 73% 0 mm
20:39 28.4 °C 23.3 °C 1011.1 hPa ESE 1.6 km/h 3.2 km/h 74% 0 mm
20:44 28.1 °C 23.3 °C 1011.1 hPa ESE 1.6 km/h 1.6 km/h 75% 0 mm
20:49 27.9 °C 23.3 °C 1011.4 hPa ESE 1.6 km/h 3.2 km/h 76% 0 mm
20:54 27.7 °C 23.1 °C 1011.4 hPa ESE 3.2 km/h 4.8 km/h 76% 0 mm
20:59 27.8 °C 22.9 °C 1011.4 hPa SE 3.2 km/h 4.8 km/h 75% 0 mm
21:04 27.8 °C 22.8 °C 1011.4 hPa ESE 3.2 km/h 4.8 km/h 74% 0 mm
21:09 27.9 °C 22.8 °C 1011.4 hPa ESE 4.8 km/h 6.4 km/h 74% 0 mm
21:14 27.8 °C 22.9 °C 1011.4 hPa ESE 4.8 km/h 4.8 km/h 75% 0 mm
21:19 27.7 °C 22.9 °C 1011.4 hPa ESE 4.8 km/h 4.8 km/h 75% 0 mm
21:24 27.7 °C 22.8 °C 1011.4 hPa ESE 3.2 km/h 4.8 km/h 75% 0 mm
21:29 27.5 °C 22.7 °C 1011.4 hPa East 3.2 km/h 4.8 km/h 75% 0 mm
21:34 27.4 °C 22.6 °C 1011.4 hPa ESE 4.8 km/h 4.8 km/h 75% 0 mm
21:39 27.4 °C 22.6 °C 1011.7 hPa ESE 3.2 km/h 4.8 km/h 75% 0 mm
21:44 27.2 °C 22.6 °C 1011.7 hPa SE 3.2 km/h 3.2 km/h 76% 0 mm
21:49 27.1 °C 22.5 °C 1011.7 hPa ESE 4.8 km/h 6.4 km/h 76% 0 mm
21:54 27.2 °C 22.6 °C 1011.7 hPa ESE 6.4 km/h 6.4 km/h 76% 0 mm
21:59 27.2 °C 22.6 °C 1011.7 hPa ESE 4.8 km/h 6.4 km/h 76% 0 mm
22:04 27.1 °C 22.5 °C 1011.7 hPa ESE 6.4 km/h 6.4 km/h 76% 0 mm
22:10 27.1 °C 22.5 °C 1011.7 hPa ESE 3.2 km/h 6.4 km/h 76% 0 mm
22:15 27.1 °C 22.5 °C 1011.7 hPa SE 3.2 km/h 4.8 km/h 76% 0 mm
22:20 27.1 °C 22.7 °C 1012.1 hPa SE 1.6 km/h 4.8 km/h 77% 0 mm
22:25 26.9 °C 22.7 °C 1012.1 hPa Calm   1.6 km/h 78% 0 mm
22:30 26.8 °C 22.6 °C 1012.1 hPa Calm     78% 0 mm
22:35 26.7 °C 22.7 °C 1012.1 hPa Calm     79% 0 mm
22:40 26.7 °C 22.7 °C 1012.1 hPa SE 1.6 km/h 1.6 km/h 79% 0 mm
22:45 26.6 °C 22.9 °C 1012.1 hPa SE 1.6 km/h 1.6 km/h 80% 0 mm
22:50 26.6 °C 22.8 °C 1012.1 hPa SE 1.6 km/h 1.6 km/h 80% 0 mm
22:55 26.7 °C 22.9 °C 1012.1 hPa SE 1.6 km/h 3.2 km/h 80% 0 mm
23:00 26.7 °C 23 °C 1012.1 hPa SE 1.6 km/h 3.2 km/h 80% 0 mm
23:05 26.7 °C 23 °C 1012.1 hPa SE 1.6 km/h 1.6 km/h 80% 0 mm
23:10 26.7 °C 22.9 °C 1012.1 hPa ESE 3.2 km/h 4.8 km/h 80% 0 mm
23:15 26.6 °C 23.1 °C 1012.1 hPa ESE 3.2 km/h 4.8 km/h 81% 0 mm
23:20 26.6 °C 23.1 °C 1012.1 hPa SE 4.8 km/h 4.8 km/h 81% 0 mm
23:25 26.7 °C 23.2 °C 1012.1 hPa SE 3.2 km/h 3.2 km/h 81% 0 mm
23:30 26.6 °C 23.1 °C 1012.1 hPa SE 1.6 km/h 3.2 km/h 81% 0 mm
23:35 26.6 °C 23 °C 1012.1 hPa SE 3.2 km/h 3.2 km/h 81% 0 mm
23:40 26.6 °C 23.1 °C 1012.1 hPa ESE 3.2 km/h 4.8 km/h 81% 0 mm
23:45 26.6 °C 23.2 °C 1012.1 hPa ESE 3.2 km/h 3.2 km/h 82% 0 mm
23:50 26.3 °C 23 °C 1012.1 hPa East 3.2 km/h 3.2 km/h 82% 0 mm
23:55 26.2 °C 23.1 °C 1012.1 hPa ESE 1.6 km/h 3.2 km/h 83% 0 mm
Compliments of Weather Underground